Time;durP1;ratioP1;P1;durP2;ratioP2;P2;SDS_P1;SDS_P2;PMS_P1;PMS_P2;Temp;Humidity;BMP_temperature;BMP_pressure;BME280_temperature;BME280_humidity;BME280_pressure;Samples;Min_cycle;Max_cycle;Signal;HPM_P1;HPM_P2
2022/03/27 00:01:22;;;;;;;22.80;9.40;;;;;10.20;97925.80;;;;111079;1247;41296;-63
2022/03/27 00:03:52;;;;;;;16.40;7.00;;;;;10.20;97928.00;;;;110863;1247;41269;-64
2022/03/27 00:06:22;;;;;;;17.90;7.50;;;;;10.20;97921.60;;;;111162;1247;41169;-64
2022/03/27 00:08:52;;;;;;;17.30;7.30;;;;;10.22;97928.60;;;;111148;1246;41129;-64
2022/03/27 00:11:25;;;;;;;17.40;7.90;;;;;10.20;97930.20;;;;111025;1249;41630;-67
2022/03/27 00:13:58;;;;;;;18.00;7.40;;;;;10.20;97931.20;;;;111120;1247;42859;-66
2022/03/27 00:16:29;;;;;;;20.40;8.30;;;;;10.20;97931.80;;;;110903;1247;41909;-64
2022/03/27 00:18:59;;;;;;;18.20;7.70;;;;;10.10;97928.80;;;;111140;1247;41540;-64
2022/03/27 00:21:29;;;;;;;18.80;8.10;;;;;10.20;97925.20;;;;111104;1247;42303;-65
2022/03/27 00:23:59;;;;;;;20.50;8.80;;;;;10.20;97926.00;;;;110849;1247;41649;-64
2022/03/27 00:26:29;;;;;;;16.50;8.10;;;;;10.14;97919.00;;;;111027;1247;41145;-64
2022/03/27 00:28:59;;;;;;;;;;;;;10.12;97919.00;;;;110994;1249;41283;-64
2022/03/27 00:31:37;;;;;;;15.80;7.00;;;;;10.10;97914.80;;;;111106;1248;41603;-64
2022/03/27 00:34:07;;;;;;;19.40;8.00;;;;;10.10;97912.80;;;;110899;1248;41126;-64
2022/03/27 00:36:36;;;;;;;18.00;8.40;;;;;10.16;97919.00;;;;111028;1247;41459;-63
2022/03/27 00:39:06;;;;;;;15.20;7.60;;;;;10.16;97914.40;;;;111105;1248;41712;-63
2022/03/27 00:41:36;;;;;;;19.20;8.10;;;;;10.20;97915.00;;;;111106;1247;41239;-66
2022/03/27 00:44:07;;;;;;;14.30;6.50;;;;;10.20;97921.00;;;;110947;1248;41152;-65
2022/03/27 00:46:36;;;;;;;16.00;7.50;;;;;10.20;97918.80;;;;111078;1247;41627;-66
2022/03/27 00:49:06;;;;;;;16.10;8.10;;;;;10.20;97918.40;;;;110967;1247;41138;-67
2022/03/27 00:51:36;;;;;;;15.80;7.70;;;;;10.28;97913.80;;;;111125;1247;41142;-66
2022/03/27 00:54:06;;;;;;;18.20;8.00;;;;;10.30;97906.40;;;;111097;1247;41245;-66
2022/03/27 00:56:37;;;;;;;16.50;7.80;;;;;10.30;97902.80;;;;111026;1249;41262;-64
2022/03/27 00:59:07;;;;;;;14.40;7.20;;;;;10.30;97902.60;;;;110811;1248;41296;-66
2022/03/27 01:01:39;;;;;;;16.60;8.00;;;;;10.20;97904.80;;;;110798;1247;41185;-63
2022/03/27 01:04:09;;;;;;;18.80;8.10;;;;;10.20;97911.80;;;;111075;1247;41939;-64
2022/03/27 01:06:43;;;;;;;16.60;7.70;;;;;10.20;97909.80;;;;111052;1249;41177;-66
2022/03/27 01:09:36;;;;;;;15.80;6.80;;;;;10.20;97909.20;;;;111073;1248;41490;-65
2022/03/27 01:12:18;;;;;;;16.20;7.20;;;;;10.30;97905.20;;;;111094;1247;41137;-63
2022/03/27 01:14:49;;;;;;;18.10;7.40;;;;;10.32;97903.40;;;;111054;1247;41142;-64
2022/03/27 01:17:22;;;;;;;17.80;7.20;;;;;10.40;97904.60;;;;111032;1247;42329;-65
2022/03/27 01:19:54;;;;;;;15.80;7.40;;;;;10.40;97907.40;;;;111062;1247;41251;-63
2022/03/27 01:22:24;;;;;;;17.60;7.30;;;;;10.40;97912.60;;;;111117;1248;41364;-65
2022/03/27 01:24:54;;;;;;;19.00;8.00;;;;;10.50;97911.80;;;;111162;1247;41940;-65
2022/03/27 01:27:24;;;;;;;18.10;8.60;;;;;10.50;97906.80;;;;111042;1247;41704;-67
2022/03/27 01:29:56;;;;;;;16.50;7.80;;;;;10.60;97908.60;;;;111060;1247;42012;-64
2022/03/27 01:32:25;;;;;;;22.70;8.00;;;;;10.60;97908.40;;;;111083;1247;42188;-66
2022/03/27 01:34:56;;;;;;;16.10;7.60;;;;;10.62;97907.00;;;;111061;1247;41639;-65
2022/03/27 01:37:27;;;;;;;15.00;7.00;;;;;10.70;97902.60;;;;111006;1249;41308;-64
2022/03/27 01:39:57;;;;;;;18.90;8.10;;;;;10.80;97903.20;;;;111160;1247;41584;-66
2022/03/27 01:42:27;;;;;;;16.90;7.60;;;;;10.72;97908.20;;;;111133;1247;41260;-67
2022/03/27 01:44:57;;;;;;;19.40;7.60;;;;;10.70;97903.40;;;;111039;1248;42006;-67
2022/03/27 01:47:28;;;;;;;16.50;7.50;;;;;10.78;97904.60;;;;111070;1247;41284;-64
2022/03/27 01:49:59;;;;;;;18.10;7.90;;;;;10.70;97906.20;;;;111072;1248;41134;-65
2022/03/27 01:52:29;;;;;;;18.90;7.20;;;;;10.80;97904.80;;;;110950;1248;41614;-65
2022/03/27 01:55:00;;;;;;;16.20;7.70;;;;;10.80;97905.60;;;;110971;1248;41152;-65
2022/03/27 01:57:30;;;;;;;20.30;7.40;;;;;10.78;97902.60;;;;111066;1247;41523;-64
2022/03/27 02:00:00;;;;;;;15.60;7.10;;;;;10.76;97899.40;;;;110889;1248;41115;-65
2022/03/27 02:02:31;;;;;;;20.30;8.20;;;;;10.80;97906.20;;;;111076;1247;42518;-65
2022/03/27 02:05:04;;;;;;;17.90;7.90;;;;;10.70;97916.60;;;;111126;1248;41836;-63
2022/03/27 02:07:38;;;;;;;16.70;7.70;;;;;10.78;97909.00;;;;111072;1247;41135;-62
2022/03/27 02:10:09;;;;;;;17.20;6.80;;;;;10.86;97899.40;;;;111093;1247;41137;-64
2022/03/27 02:12:39;;;;;;;15.30;6.50;;;;;10.84;97899.80;;;;111094;1247;41274;-64
2022/03/27 02:15:10;;;;;;;17.90;7.40;;;;;10.80;97904.20;;;;111073;1248;41450;-64
2022/03/27 02:17:40;;;;;;;15.50;6.70;;;;;10.80;97907.20;;;;111056;1247;41750;-65
2022/03/27 02:20:11;;;;;;;17.70;8.50;;;;;10.70;97906.60;;;;111049;1248;41195;-66
2022/03/27 02:22:41;;;;;;;16.00;7.50;;;;;10.70;97915.40;;;;111062;1248;41143;-66
2022/03/27 02:25:12;;;;;;;19.60;8.30;;;;;10.70;97910.20;;;;111110;1247;41657;-67
2022/03/27 02:27:42;;;;;;;14.80;7.20;;;;;10.70;97912.20;;;;111067;1248;41139;-64
2022/03/27 02:30:15;;;;;;;17.20;7.60;;;;;10.62;97920.60;;;;111049;1247;41889;-64
2022/03/27 02:32:47;;;;;;;17.70;7.90;;;;;10.60;97913.80;;;;111037;1247;41850;-63
2022/03/27 02:35:18;;;;;;;16.00;6.80;;;;;10.60;97924.60;;;;111095;1247;41156;-64
2022/03/27 02:37:48;;;;;;;16.60;7.00;;;;;10.60;97931.00;;;;111136;1247;41842;-64
2022/03/27 02:40:20;;;;;;;17.50;6.40;;;;;10.52;97938.80;;;;110874;1247;41263;-63
2022/03/27 02:42:50;;;;;;;14.60;6.10;;;;;10.60;97951.80;;;;111087;1247;41263;-64
2022/03/27 02:45:20;;;;;;;14.20;5.60;;;;;10.60;97962.40;;;;111052;1249;41821;-65
2022/03/27 02:47:51;;;;;;;14.20;6.10;;;;;10.60;97964.40;;;;111158;1247;41595;-67
2022/03/27 02:50:24;;;;;;;20.90;6.50;;;;;10.80;97966.60;;;;110926;1248;41900;-67
2022/03/27 02:52:56;;;;;;;12.60;6.00;;;;;10.82;97957.80;;;;111084;1247;41139;-66
2022/03/27 02:55:26;;;;;;;16.70;6.80;;;;;10.90;97967.80;;;;111073;1247;41123;-66
2022/03/27 02:57:57;;;;;;;;;;;;;10.90;97966.80;;;;111058;1248;41265;-67
2022/03/27 03:00:28;;;;;;;14.50;5.70;;;;;11.00;97969.40;;;;111052;1247;41260;-66
2022/03/27 03:02:59;;;;;;;12.90;5.80;;;;;11.08;97970.00;;;;111071;1248;41804;-66
2022/03/27 03:05:30;;;;;;;15.10;6.10;;;;;11.10;97967.60;;;;111089;1247;41486;-67
2022/03/27 03:08:03;;;;;;;13.80;5.50;;;;;11.20;97967.80;;;;111071;1247;41123;-64
2022/03/27 03:10:34;;;;;;;16.10;5.60;;;;;11.20;97965.80;;;;111096;1247;41121;-65
2022/03/27 03:13:04;;;;;;;20.20;6.00;;;;;11.10;97966.20;;;;111129;1247;41173;-64
2022/03/27 03:15:38;;;;;;;12.70;5.90;;;;;11.10;97972.20;;;;111154;1247;41587;-64
2022/03/27 03:18:10;;;;;;;16.30;6.20;;;;;11.00;97978.00;;;;111075;1247;41144;-66
2022/03/27 03:20:40;;;;;;;16.80;6.20;;;;;11.00;97978.80;;;;111015;1248;43201;-66
2022/03/27 03:23:11;;;;;;;;;;;;;11.00;97975.00;;;;111096;1247;41253;-66
2022/03/27 03:25:42;;;;;;;18.70;6.20;;;;;10.90;97983.80;;;;111141;1247;41268;-66
2022/03/27 03:28:33;;;;;;;17.50;6.00;;;;;10.86;97973.80;;;;111171;1245;40884;-65
2022/03/27 03:31:03;;;;;;;14.40;5.80;;;;;10.90;97983.00;;;;111080;1247;42417;-65
2022/03/27 03:33:34;;;;;;;12.10;5.30;;;;;10.82;97979.00;;;;111108;1247;42300;-64
2022/03/27 03:36:04;;;;;;;12.70;5.20;;;;;10.80;97981.60;;;;111182;1247;42377;-64
2022/03/27 03:38:34;;;;;;;15.10;5.80;;;;;10.80;97984.60;;;;111116;1247;41252;-63
2022/03/27 03:41:05;;;;;;;13.60;5.60;;;;;10.70;97986.00;;;;111106;1246;41141;-63
2022/03/27 03:43:36;;;;;;;11.90;5.40;;;;;10.70;97987.80;;;;111014;1248;42079;-63
2022/03/27 03:46:06;;;;;;;;;;;;;10.60;97995.60;;;;111048;1247;41806;-64
2022/03/27 03:48:36;;;;;;;11.90;5.10;;;;;10.60;97994.40;;;;111047;1248;41346;-64
2022/03/27 03:51:07;;;;;;;12.10;5.00;;;;;10.50;97987.40;;;;111116;1247;41194;-66
2022/03/27 03:53:36;;;;;;;12.30;5.10;;;;;10.50;97992.20;;;;111090;1247;41939;-66
2022/03/27 03:56:06;;;;;;;10.90;5.20;;;;;10.40;97996.80;;;;111056;1248;41825;-65
2022/03/27 03:58:36;;;;;;;12.20;5.50;;;;;10.40;97993.80;;;;111031;1248;41282;-64
2022/03/27 04:01:05;;;;;;;16.80;6.00;;;;;10.50;97994.20;;;;111111;1248;41139;-64
2022/03/27 04:03:35;;;;;;;14.50;5.50;;;;;10.48;98001.80;;;;110843;1250;41138;-64
2022/03/27 04:06:06;;;;;;;10.70;4.80;;;;;10.48;97999.40;;;;111096;1247;41258;-64
2022/03/27 04:08:36;;;;;;;10.90;5.00;;;;;10.40;98000.00;;;;111098;1248;41888;-64
2022/03/27 04:11:05;;;;;;;11.80;5.50;;;;;10.30;98004.40;;;;111024;1247;41237;-63
2022/03/27 04:13:36;;;;;;;11.10;4.50;;;;;10.30;98011.00;;;;111201;1244;41189;-62
2022/03/27 04:16:05;;;;;;;11.30;4.70;;;;;10.30;98017.00;;;;111120;1246;41167;-66
2022/03/27 04:18:35;;;;;;;11.00;5.20;;;;;10.20;98030.20;;;;111055;1247;41124;-64
2022/03/27 04:21:07;;;;;;;14.30;5.90;;;;;10.20;98022.40;;;;111057;1249;41165;-65
2022/03/27 04:23:36;;;;;;;14.80;5.50;;;;;10.20;98029.20;;;;111037;1247;41126;-65
2022/03/27 04:26:07;;;;;;;12.00;5.20;;;;;10.16;98033.20;;;;110934;1248;41149;-64
2022/03/27 04:28:36;;;;;;;11.40;5.20;;;;;10.10;98037.00;;;;110913;1249;41239;-63
2022/03/27 04:31:06;;;;;;;10.90;4.70;;;;;10.10;98044.00;;;;110831;1248;41621;-63
2022/03/27 04:33:36;;;;;;;12.40;4.60;;;;;10.10;98051.40;;;;111131;1247;41285;-63
2022/03/27 04:36:08;;;;;;;10.00;4.60;;;;;10.10;98051.40;;;;110942;1247;41154;-63
2022/03/27 04:38:38;;;;;;;10.10;3.90;;;;;10.10;98057.40;;;;110869;1248;41264;-63
2022/03/27 04:41:07;;;;;;;11.10;4.70;;;;;10.10;98054.20;;;;111104;1247;41139;-64
2022/03/27 04:43:37;;;;;;;13.10;5.20;;;;;10.10;98058.20;;;;111052;1248;41320;-65
2022/03/27 04:46:07;;;;;;;9.70;4.40;;;;;10.20;98068.80;;;;111016;1247;41208;-66
2022/03/27 04:48:37;;;;;;;15.00;4.70;;;;;10.20;98068.80;;;;111197;1247;41159;-66
2022/03/27 04:51:06;;;;;;;11.40;4.70;;;;;10.20;98073.00;;;;110937;1247;41284;-65
2022/03/27 04:53:36;;;;;;;11.70;4.80;;;;;10.20;98074.60;;;;111008;1247;42374;-67
2022/03/27 04:56:08;;;;;;;12.70;5.30;;;;;10.20;98079.80;;;;111120;1247;41275;-65
2022/03/27 04:58:37;;;;;;;11.90;4.70;;;;;10.20;98091.80;;;;111081;1247;41366;-67
2022/03/27 05:01:07;;;;;;;10.60;4.80;;;;;10.20;98097.40;;;;111027;1248;41158;-64
2022/03/27 05:03:37;;;;;;;11.10;4.30;;;;;10.20;98100.40;;;;110871;1247;42620;-64
2022/03/27 05:06:06;;;;;;;12.70;4.60;;;;;10.20;98103.00;;;;111043;1247;41503;-64
2022/03/27 05:08:35;;;;;;;10.00;4.50;;;;;10.20;98105.00;;;;110868;1248;41611;-65
2022/03/27 05:11:06;;;;;;;9.60;4.10;;;;;10.20;98095.60;;;;110988;1248;42037;-64
2022/03/27 05:13:35;;;;;;;9.10;4.10;;;;;10.20;98096.60;;;;111066;1247;41140;-66
2022/03/27 05:16:05;;;;;;;9.00;3.80;;;;;10.28;98092.60;;;;111007;1247;41139;-66
2022/03/27 05:18:34;;;;;;;8.10;3.50;;;;;10.30;98089.20;;;;110714;1248;41156;-63
2022/03/27 05:21:03;;;;;;;11.80;3.90;;;;;10.30;98100.60;;;;111095;1247;41256;-64
2022/03/27 05:23:34;;;;;;;8.80;3.60;;;;;10.30;98107.80;;;;110962;1250;41152;-62
2022/03/27 05:26:03;;;;;;;9.30;4.00;;;;;10.30;98109.40;;;;110760;1250;41260;-64
2022/03/27 05:28:34;;;;;;;10.20;3.80;;;;;10.40;98112.20;;;;111097;1247;41365;-64
2022/03/27 05:31:08;;;;;;;10.20;3.40;;;;;10.50;98118.00;;;;111015;1247;41720;-65
2022/03/27 05:33:38;;;;;;;8.40;3.30;;;;;10.60;98121.20;;;;110997;1247;41153;-65
2022/03/27 05:36:09;;;;;;;8.70;3.40;;;;;10.76;98126.00;;;;111013;1248;42337;-64
2022/03/27 05:38:40;;;;;;;9.20;3.50;;;;;10.90;98124.80;;;;111104;1247;41152;-65
2022/03/27 05:41:09;;;;;;;9.00;3.70;;;;;11.06;98125.80;;;;111141;1247;41141;-66
2022/03/27 05:43:39;;;;;;;10.50;4.10;;;;;11.18;98124.20;;;;111214;1246;41143;-64
2022/03/27 05:46:08;;;;;;;9.50;3.40;;;;;11.20;98121.40;;;;111003;1248;41155;-65
2022/03/27 05:48:38;;;;;;;8.50;3.20;;;;;11.30;98131.60;;;;111146;1248;41783;-64
2022/03/27 05:51:08;;;;;;;9.60;3.90;;;;;11.40;98137.60;;;;111049;1248;42302;-61
2022/03/27 05:53:37;;;;;;;8.60;3.60;;;;;11.60;98136.60;;;;110853;1250;41143;-64
2022/03/27 05:56:06;;;;;;;8.00;3.30;;;;;11.70;98132.60;;;;111086;1246;41170;-64
2022/03/27 05:58:37;;;;;;;8.80;3.80;;;;;11.80;98135.80;;;;111108;1247;41255;-64
2022/03/27 06:01:06;;;;;;;;;;;;;11.90;98141.00;;;;111030;1248;42144;-63
2022/03/27 06:03:35;;;;;;;10.20;3.80;;;;;11.90;98150.80;;;;111024;1249;41256;-69
2022/03/27 06:06:05;;;;;;;7.70;3.20;;;;;12.00;98142.40;;;;111106;1247;41469;-63
2022/03/27 06:08:35;;;;;;;10.10;3.70;;;;;12.00;98142.40;;;;110935;1247;41308;-64
2022/03/27 06:11:05;;;;;;;9.60;3.70;;;;;12.00;98146.00;;;;110876;1250;41851;-63
2022/03/27 06:13:34;;;;;;;11.30;3.30;;;;;12.06;98146.80;;;;110851;1250;41270;-63
2022/03/27 06:16:04;;;;;;;7.70;3.40;;;;;12.00;98146.60;;;;111017;1248;42914;-62
2022/03/27 06:18:33;;;;;;;10.40;3.80;;;;;12.00;98159.00;;;;111020;1248;41604;-64
2022/03/27 06:21:02;;;;;;;10.00;4.00;;;;;12.10;98168.40;;;;111188;1247;42070;-64
2022/03/27 06:23:32;;;;;;;7.90;3.20;;;;;12.10;98169.60;;;;111087;1247;41958;-66
2022/03/27 06:26:01;;;;;;;8.50;3.20;;;;;12.10;98174.60;;;;111070;1247;41140;-64
2022/03/27 06:28:30;;;;;;;10.50;3.70;;;;;12.24;98182.00;;;;111218;1247;41302;-65
2022/03/27 06:31:00;;;;;;;9.30;4.00;;;;;12.30;98178.20;;;;110945;1247;42378;-64
2022/03/27 06:33:29;;;;;;;12.20;3.80;;;;;12.20;98179.60;;;;111249;1247;41178;-65
2022/03/27 06:36:01;;;;;;;8.90;3.60;;;;;12.10;98185.20;;;;111137;1247;41157;-63
2022/03/27 06:38:30;;;;;;;9.70;3.70;;;;;12.10;98184.80;;;;111148;1247;42220;-66
2022/03/27 06:41:00;;;;;;;10.10;3.30;;;;;12.20;98177.20;;;;111016;1248;41376;-67
2022/03/27 06:43:29;;;;;;;9.50;3.80;;;;;12.14;98186.40;;;;110883;1247;41610;-64
2022/03/27 06:45:59;;;;;;;9.40;3.80;;;;;12.20;98188.20;;;;111105;1247;41198;-65
2022/03/27 06:48:28;;;;;;;9.70;3.60;;;;;12.12;98192.00;;;;111045;1248;41133;-65
2022/03/27 06:50:57;;;;;;;10.50;3.40;;;;;12.20;98191.00;;;;111105;1250;41111;-65
2022/03/27 06:53:27;;;;;;;10.20;3.40;;;;;12.20;98183.00;;;;111089;1248;41635;-66
2022/03/27 06:55:56;;;;;;;9.10;3.80;;;;;12.20;98176.20;;;;110848;1247;41254;-63
2022/03/27 06:58:25;;;;;;;7.60;3.30;;;;;12.12;98188.20;;;;111109;1247;41148;-66
2022/03/27 07:03:42;;;;;;;8.50;3.50;;;;;12.40;98188.40;;;;111141;1247;41133;-63
2022/03/27 07:06:14;;;;;;;8.60;3.10;;;;;12.42;98193.40;;;;111136;1248;41315;-64
2022/03/27 07:08:44;;;;;;;10.20;3.20;;;;;12.40;98194.00;;;;111132;1248;41829;-65
2022/03/27 07:11:13;;;;;;;7.50;3.10;;;;;12.50;98193.40;;;;111035;1247;41146;-64
2022/03/27 07:13:42;;;;;;;8.20;3.40;;;;;12.60;98194.60;;;;111028;1249;41254;-65
2022/03/27 07:16:13;;;;;;;10.20;3.40;;;;;12.70;98192.20;;;;111126;1247;42549;-65
2022/03/27 07:18:42;;;;;;;8.70;3.50;;;;;12.80;98188.40;;;;111035;1248;41628;-65
2022/03/27 07:21:13;;;;;;;10.00;3.50;;;;;12.90;98187.40;;;;111050;1247;41609;-66
2022/03/27 07:23:42;;;;;;;11.80;3.80;;;;;13.00;98191.00;;;;111061;1248;41617;-63
2022/03/27 07:26:12;;;;;;;8.80;3.50;;;;;13.04;98183.00;;;;111099;1247;41267;-64
2022/03/27 07:28:42;;;;;;;9.40;3.70;;;;;13.00;98188.40;;;;110936;1249;41421;-64
2022/03/27 07:31:13;;;;;;;8.80;3.40;;;;;13.10;98191.80;;;;111163;1247;41303;-64
2022/03/27 07:33:42;;;;;;;10.10;3.60;;;;;13.32;98189.40;;;;110591;1247;678346;-64
2022/03/27 07:36:12;;;;;;;8.80;3.50;;;;;13.50;98186.00;;;;111133;1247;41149;-64
2022/03/27 07:38:41;;;;;;;12.50;6.00;;;;;13.60;98186.40;;;;111032;1247;41936;-63
2022/03/27 07:41:15;;;;;;;12.30;5.10;;;;;13.88;98192.60;;;;110810;1249;41235;-65
2022/03/27 07:43:44;;;;;;;11.90;4.50;;;;;14.10;98177.80;;;;110752;1248;41632;-65
2022/03/27 07:46:13;;;;;;;18.90;7.70;;;;;14.08;98195.60;;;;110673;1250;41151;-66
2022/03/27 07:48:43;;;;;;;8.80;3.80;;;;;14.26;98198.60;;;;110839;1249;41299;-66
2022/03/27 07:51:12;;;;;;;13.60;5.40;;;;;14.40;98193.40;;;;111080;1247;41136;-64
2022/03/27 07:53:41;;;;;;;8.50;3.30;;;;;14.40;98194.40;;;;111067;1249;41259;-64
2022/03/27 07:56:10;;;;;;;9.40;3.70;;;;;14.34;98203.00;;;;110839;1250;41159;-63
2022/03/27 07:58:43;;;;;;;10.70;4.10;;;;;14.50;98206.20;;;;111089;1248;41254;-64
2022/03/27 08:01:15;;;;;;;14.70;5.50;;;;;14.60;98208.00;;;;110868;1249;42102;-63
2022/03/27 08:03:44;;;;;;;13.20;5.30;;;;;14.72;98215.40;;;;110753;1250;41140;-64
2022/03/27 08:06:14;;;;;;;9.10;3.60;;;;;14.88;98216.60;;;;110816;1250;42362;-66
2022/03/27 08:08:43;;;;;;;17.00;6.80;;;;;15.00;98213.80;;;;110760;1249;42099;-66
2022/03/27 08:11:12;;;;;;;10.20;3.80;;;;;15.00;98207.80;;;;111065;1247;41152;-66
2022/03/27 08:13:43;;;;;;;8.70;3.50;;;;;15.10;98210.20;;;;111084;1248;41742;-64
2022/03/27 08:16:12;;;;;;;10.00;3.90;;;;;15.20;98208.40;;;;110738;1250;42244;-67
2022/03/27 08:18:42;;;;;;;8.00;3.00;;;;;15.30;98203.20;;;;110825;1250;41373;-67
2022/03/27 08:21:11;;;;;;;9.90;3.60;;;;;15.30;98206.00;;;;110920;1248;42301;-66
2022/03/27 08:23:40;;;;;;;9.80;3.50;;;;;15.50;98204.20;;;;110938;1250;41600;-63
2022/03/27 08:28:57;;;;;;;8.90;3.30;;;;;15.60;98201.40;;;;111021;1248;41609;-66
2022/03/27 08:31:26;;;;;;;15.30;3.60;;;;;15.62;98204.00;;;;110766;1250;41151;-64
2022/03/27 08:33:56;;;;;;;8.00;2.90;;;;;15.80;98210.20;;;;110917;1248;42435;-63
2022/03/27 08:36:27;;;;;;;8.80;3.60;;;;;16.10;98210.80;;;;111101;1247;41708;-65
2022/03/27 08:38:56;;;;;;;7.50;3.10;;;;;16.22;98207.80;;;;110934;1250;41158;-65
2022/03/27 08:41:26;;;;;;;9.30;3.50;;;;;16.44;98206.00;;;;110960;1248;41268;-66
2022/03/27 08:43:59;;;;;;;10.60;3.50;;;;;16.66;98205.40;;;;111026;1249;41439;-63
2022/03/27 08:46:29;;;;;;;7.20;3.10;;;;;16.82;98203.80;;;;110853;1249;41169;-68
2022/03/27 08:49:02;;;;;;;;;;;;;16.90;98198.00;;;;111031;1249;41179;-68
2022/03/27 08:51:41;;;;;;;10.90;4.20;;;;;17.00;98194.20;;;;111066;1248;41276;-67
2022/03/27 08:54:23;;;;;;;7.70;3.20;;;;;17.30;98190.20;;;;111160;1247;41151;-67
2022/03/27 08:57:06;;;;;;;8.50;3.20;;;;;17.60;98189.20;;;;111060;1247;41867;-64
2022/03/27 08:59:37;;;;;;;9.60;3.10;;;;;17.70;98195.60;;;;111084;1248;41150;-63
2022/03/27 09:02:06;;;;;;;7.50;2.60;;;;;17.90;98193.20;;;;111022;1249;41264;-62
2022/03/27 09:04:37;;;;;;;6.60;2.70;;;;;18.10;98175.40;;;;111009;1249;41255;-64
2022/03/27 09:07:06;;;;;;;8.60;2.70;;;;;18.24;98184.40;;;;111066;1248;41649;-62
2022/03/27 09:09:36;;;;;;;9.70;3.10;;;;;18.72;98188.40;;;;111028;1249;41192;-64
2022/03/27 09:12:06;;;;;;;8.10;2.90;;;;;19.64;98182.40;;;;110950;1249;41287;-63
2022/03/27 09:14:36;;;;;;;6.30;2.60;;;;;21.16;98175.20;;;;111144;1247;41167;-69
2022/03/27 09:17:07;;;;;;;5.70;2.40;;;;;22.56;98176.20;;;;111039;1247;41640;-67
2022/03/27 09:19:39;;;;;;;;;;;;;23.54;98175.00;;;;111113;1247;41260;-69
2022/03/27 09:22:34;;;;;;;6.60;2.30;;;;;24.84;98180.40;;;;111442;1246;41135;-65
2022/03/27 09:25:05;;;;;;;7.80;3.10;;;;;25.92;98186.20;;;;111022;1247;41799;-69
2022/03/27 09:27:34;;;;;;;;;;;;;26.46;98191.00;;;;111047;1248;41611;-69
2022/03/27 09:30:07;;;;;;;9.30;2.90;;;;;26.84;98180.80;;;;110992;1248;41130;-69
2022/03/27 09:32:44;;;;;;;7.50;2.50;;;;;27.62;98178.20;;;;110899;1249;41298;-68
2022/03/27 09:35:17;;;;;;;45.60;19.10;;;;;28.62;98177.20;;;;111107;1247;41308;-70
2022/03/27 09:37:47;;;;;;;12.70;4.40;;;;;29.54;98171.20;;;;111008;1248;41148;-69
2022/03/27 09:40:17;;;;;;;8.00;2.70;;;;;30.10;98174.40;;;;111016;1248;41618;-64
2022/03/27 09:42:47;;;;;;;7.30;2.60;;;;;30.42;98171.20;;;;111034;1248;41138;-66
2022/03/27 09:45:23;;;;;;;6.00;2.40;;;;;30.30;98180.20;;;;111080;1248;41130;-64
2022/03/27 09:47:53;;;;;;;6.70;2.60;;;;;30.82;98164.60;;;;111134;1247;41523;-63
2022/03/27 09:50:34;;;;;;;6.40;2.40;;;;;30.54;98159.60;;;;111080;1247;41138;-66
2022/03/27 09:53:30;;;;;;;6.20;2.30;;;;;30.38;98174.60;;;;111031;1249;41143;-66
2022/03/27 09:56:05;;;;;;;7.30;2.30;;;;;30.72;98177.20;;;;110904;1249;41178;-70
2022/03/27 09:58:36;;;;;;;5.00;2.00;;;;;30.00;98180.80;;;;111070;1248;41252;-71
2022/03/27 10:01:16;;;;;;;5.50;2.10;;;;;29.84;98178.40;;;;111040;1249;41780;-68
2022/03/27 10:04:13;;;;;;;5.00;2.10;;;;;29.80;98181.00;;;;111008;1249;41599;-68
2022/03/27 10:06:42;;;;;;;9.40;3.60;;;;;30.40;98175.00;;;;111011;1248;41748;-67
2022/03/27 10:09:13;;;;;;;4.30;1.90;;;;;31.12;98168.40;;;;110979;1248;41143;-69
2022/03/27 10:11:43;;;;;;;5.10;2.00;;;;;31.32;98178.20;;;;110987;1249;41699;-68
2022/03/27 10:14:12;;;;;;;6.30;1.90;;;;;32.24;98182.80;;;;110973;1248;41503;-71
2022/03/27 10:16:46;;;;;;;6.40;2.30;;;;;32.64;98180.60;;;;111045;1248;41538;-70
2022/03/27 10:19:31;;;;;;;4.50;2.00;;;;;32.80;98182.60;;;;110864;1247;41189;-65
2022/03/27 10:22:05;;;;;;;4.80;2.00;;;;;33.00;98176.80;;;;111105;1247;41135;-70
2022/03/27 10:24:34;;;;;;;4.80;1.80;;;;;33.74;98162.60;;;;111040;1249;41585;-72
2022/03/27 10:27:04;;;;;;;7.00;2.30;;;;;34.20;98162.20;;;;111053;1247;41138;-68
2022/03/27 10:29:33;;;;;;;6.10;2.30;;;;;33.78;98159.20;;;;111042;1249;41134;-65
2022/03/27 10:32:04;;;;;;;8.50;4.00;;;;;34.22;98159.00;;;;111014;1249;41140;-66
2022/03/27 10:34:48;;;;;;;6.50;2.20;;;;;35.70;98154.80;;;;110761;1249;41146;-71
2022/03/27 10:37:31;;;;;;;6.00;2.30;;;;;35.20;98145.00;;;;111105;1248;42380;-64
2022/03/27 10:40:34;;;;;;;17.50;9.70;;;;;34.80;98148.40;;;;110976;1249;41599;-66
2022/03/27 10:43:09;;;;;;;5.10;2.00;;;;;35.72;98153.20;;;;110684;1249;41945;-66
2022/03/27 10:45:38;;;;;;;3.00;1.60;;;;;35.90;98152.60;;;;111017;1249;41137;-70
2022/03/27 10:48:20;;;;;;;5.10;1.90;;;;;36.06;98152.20;;;;110828;1249;41673;-65
2022/03/27 10:50:52;;;;;;;5.40;1.80;;;;;37.16;98146.80;;;;111030;1249;41930;-70
2022/03/27 10:53:26;;;;;;;6.70;2.20;;;;;38.36;98148.60;;;;111125;1247;42043;-64
2022/03/27 10:55:58;;;;;;;5.80;1.70;;;;;38.88;98139.40;;;;111076;1248;41148;-63
2022/03/27 10:58:28;;;;;;;6.10;2.00;;;;;38.50;98154.00;;;;111016;1248;42076;-63
2022/03/27 11:00:59;;;;;;;5.90;1.90;;;;;38.02;98152.20;;;;111174;1247;41263;-68
2022/03/27 11:03:44;;;;;;;2.80;1.70;;;;;37.76;98155.00;;;;111153;1247;42371;-71
2022/03/27 11:06:22;;;;;;;4.60;1.90;;;;;37.78;98158.00;;;;111186;1247;41170;-67
2022/03/27 11:08:53;;;;;;;4.10;1.90;;;;;38.40;98164.80;;;;111058;1249;41970;-64
2022/03/27 11:11:37;;;;;;;7.50;2.30;;;;;38.50;98147.80;;;;111023;1249;41174;-68
2022/03/27 11:14:10;;;;;;;13.90;6.70;;;;;37.28;98160.00;;;;111120;1247;41260;-63
2022/03/27 11:17:04;;;;;;;23.20;11.70;;;;;37.24;98169.20;;;;111015;1249;42068;-65
2022/03/27 11:19:51;;;;;;;9.70;4.30;;;;;37.34;98168.80;;;;110994;1248;41148;-69
2022/03/27 11:22:45;;;;;;;5.60;1.90;;;;;37.68;98166.40;;;;111134;1247;41652;-67
2022/03/27 11:25:34;;;;;;;4.70;1.80;;;;;36.32;98160.80;;;;111058;1247;41582;-69
2022/03/27 11:28:03;;;;;;;6.40;2.20;;;;;35.12;98158.60;;;;111050;1249;42361;-69
2022/03/27 11:30:37;;;;;;;6.60;2.70;;;;;34.96;98161.40;;;;111123;1250;41152;-66
2022/03/27 11:33:24;;;;;;;5.70;2.30;;;;;34.66;98162.80;;;;111110;1248;41172;-66
2022/03/27 11:36:04;;;;;;;6.10;2.40;;;;;35.16;98158.20;;;;111107;1247;41631;-72
2022/03/27 11:39:09;;;;;;;5.30;1.90;;;;;35.90;98162.40;;;;111074;1248;41579;-68
2022/03/27 11:41:44;;;;;;;5.30;2.00;;;;;36.20;98158.80;;;;111008;1249;41924;-70
2022/03/27 11:47:23;;;;;;;5.70;1.90;;;;;35.22;98165.60;;;;111067;1249;41396;-63
2022/03/27 11:49:54;;;;;;;4.30;1.90;;;;;34.22;98173.20;;;;111078;1247;41941;-65
2022/03/27 11:52:23;;;;;;;4.20;1.80;;;;;33.24;98172.20;;;;111246;1247;41138;-66
2022/03/27 11:55:12;;;;;;;4.30;1.70;;;;;33.08;98174.40;;;;111133;1247;41302;-63
2022/03/27 11:57:42;;;;;;;4.20;1.80;;;;;32.30;98177.60;;;;110873;1250;41946;-66
2022/03/27 12:00:13;;;;;;;5.00;1.90;;;;;31.86;98176.60;;;;111113;1247;43488;-64
2022/03/27 12:02:44;;;;;;;4.80;1.90;;;;;32.00;98172.20;;;;111077;1249;41920;-63
2022/03/27 12:05:13;;;;;;;4.70;2.00;;;;;31.98;98170.40;;;;111092;1248;41591;-72
2022/03/27 12:07:56;;;;;;;4.10;1.70;;;;;31.24;98170.60;;;;111111;1248;41356;-72
2022/03/27 12:10:26;;;;;;;3.80;1.80;;;;;29.92;98175.40;;;;111128;1246;41360;-69
2022/03/27 12:12:56;;;;;;;4.60;1.90;;;;;29.34;98179.20;;;;111036;1250;41610;-71
2022/03/27 12:15:49;;;;;;;6.40;2.00;;;;;29.36;98169.00;;;;111045;1250;41134;-68
2022/03/27 12:18:39;;;;;;;5.60;1.90;;;;;28.18;98177.20;;;;111012;1247;41950;-69
2022/03/27 12:21:10;;;;;;;7.00;2.00;;;;;27.52;98187.20;;;;111102;1248;42295;-64
2022/03/27 12:24:04;;;;;;;4.40;1.80;;;;;27.26;98184.80;;;;110814;1249;41333;-69
2022/03/27 12:29:40;;;;;;;6.90;2.00;;;;;26.60;98184.60;;;;111168;1248;42098;-64
2022/03/27 12:32:14;;;;;;;5.80;1.80;;;;;25.14;98181.20;;;;111083;1248;41723;-70
2022/03/27 12:34:45;;;;;;;5.80;2.10;;;;;24.90;98186.80;;;;111089;1247;41258;-67
2022/03/27 12:37:21;;;;;;;7.50;2.30;;;;;24.66;98198.00;;;;111111;1247;41192;-65
2022/03/27 12:39:50;;;;;;;5.80;2.20;;;;;24.48;98193.80;;;;111047;1250;41155;-65
2022/03/27 12:42:32;;;;;;;7.60;2.30;;;;;24.16;98199.60;;;;110908;1249;41945;-64